メインページ
METAR-TAF:

METAR-TAF

空港 :

ドバイ, アラブ首長国連邦

ドバイ国際空港

緯度: 25-15-10N, 経度: 055-21-52E, 海抜: 8m

現時点の気象観測

当レポートは58分前の11:00(UTC)に作成
の風 14kt
気温 28°C
湿度 51%
気圧 1012 hPa
視程10km以上
高度4000ftの雲は散在している

METAR: OMDB 241100Z 10014KT 9999 SCT040 28/17 Q1012 TEMPO VRB20G30KT 3000 TSRA FEW030CB

時間: 15:58 (11:58 UTC)

予報

当レポートは1時間6分前の10:52(UTC)に作成
予報は24日の 12時(UTC)から 25日の 18時(UTC)まで有効
北東の風 9kt
視程: 8000m
高度3000ftの雲はほとんどない
確率 30% :
24日の 12時(UTC)から 24日の 23時(UTC)まで一時的に
変向風 25kt、最大40ktの突風を伴う
視程: 1500m
高度3000ftの雲はほとんどない, 積乱雲.
激しい雷雨, 雨, 風塵
確率 30% :
24日の 23時(UTC)から 25日の 11時(UTC)まで一時的に
変向風 18kt、最大28ktの突風を伴う
視程: 4000m
高度3000ftの雲はほとんどない, 塔状積雲.
にわか雨, 風塵
25日の 05時(UTC)から 25日の 07時(UTC)まで徐々に
南/南東の風 13kt
25日の 09時(UTC)から 25日の 11時(UTC)まで徐々に
の風 15kt
25日の 16時(UTC)から 25日の 18時(UTC)まで徐々に
東/北東の風 8kt

TAF: OMDB 241052Z 2412/2518 05009KT 8000 FEW030 PROB30 TEMPO 2412/2423 VRB25G40KT 1500 TSRA BLDU FEW030CB PROB30 TEMPO 2423/2511 VRB18G28KT 4000 SHRA BLDU FEW030TCU BECMG 2505/2507 15013KT BECMG 2509/2511 36015KT BECMG 2516/2518 06008KT

4,000以上の空港の気象観測と天気予報(METAR報とTAF報)

利用可能な観測所は地図上に黄色い丸と赤い丸で示す。

丸の上にカーソルを重ねると観測所名を参照できる。

次にクリックすると気象観測と天気予報を参照できる。

マップの切り替え:黒色「×」印の緑ボタンをクリックして拡大、「-」印の緑ボタンをクリックして縮小、緑色の三角印をクリックして隣りの地図に切り替え


METAR-TAF: